Time;durP1;ratioP1;P1;durP2;ratioP2;P2;SDS_P1;SDS_P2;PMS_P1;PMS_P2;Temp;Humidity;BMP_temperature;BMP_pressure;BME280_temperature;BME280_humidity;BME280_pressure;Samples;Min_cycle;Max_cycle;Signal;HPM_P1;HPM_P2
2024/01/13 00:05:13;;;;;;;13.50;12.00;;;;;;;1.90;100.00;100830.39;108055;1285;549152;-76
2024/01/13 00:08:27;;;;;;;14.60;13.20;;;;;;;2.03;100.00;100823.67;107268;1268;3169943;-76
2024/01/13 00:11:10;;;;;;;13.10;11.80;;;;;;;1.49;100.00;100825.45;109351;1271;22582;-77
2024/01/13 00:13:58;;;;;;;14.40;12.60;;;;;;;1.20;100.00;100824.89;109241;1271;23043;-77
2024/01/13 00:16:37;;;;;;;17.70;14.70;;;;;;;0.99;100.00;100824.03;109333;1271;22053;-77
2024/01/13 00:20:12;;;;;;;;;;;;;;;;;;;;;
2024/01/13 00:24:22;;;;;;;;;;;;;;;;;;;;;
2024/01/13 00:27:59;;;;;;;14.10;12.70;;;;;;;0.49;100.00;100804.52;109180;1273;21984;-76
2024/01/13 00:31:55;;;;;;;14.10;12.30;;;;;;;0.41;100.00;100807.70;109971;1267;22239;-77
2024/01/13 00:35:46;;;;;;;;;;;;;;;;;;;;;
2024/01/13 00:39:44;;;;;;;;;;;;;;;;;;;;;
2024/01/13 00:43:21;;;;;;;;;;;;;;;;;;;;;
2024/01/13 00:46:47;;;;;;;14.50;12.60;;;;;;;0.28;100.00;100788.73;108309;1288;22959;-77
2024/01/13 00:50:35;;;;;;;;;;;;;;;;;;;;;
2024/01/13 00:54:06;;;;;;;;;;;;;;;;;;;;;
2024/01/13 00:58:27;;;;;;;;;;;;;;;;;;;;;
2024/01/13 01:02:36;;;;;;;18.50;14.20;;;;;;;0.28;100.00;100771.25;108636;1282;22070;-77
2024/01/13 01:05:57;;;;;;;;;;;;;;;;;;;;;
2024/01/13 01:09:55;;;;;;;;;;;;;;;;;;;;;
2024/01/13 01:13:43;;;;;;;;;;;;;;;;;;;;;
2024/01/13 01:16:42;;;;;;;15.70;13.20;;;;;;;0.32;100.00;100767.71;108647;1278;23061;-77
2024/01/13 01:23:30;;;;;;;;;;;;;;;;;;;;;
2024/01/13 01:26:47;;;;;;;16.80;14.60;;;;;;;0.41;100.00;100761.81;107640;1294;22030;-76
2024/01/13 01:30:26;;;;;;;19.30;14.50;;;;;;;0.41;100.00;100753.92;107516;1292;22097;-76
2024/01/13 01:36:40;;;;;;;16.80;13.80;;;;;;;0.47;100.00;100756.73;106991;1298;23709;-77
2024/01/13 01:39:40;;;;;;;20.30;14.50;;;;;;;0.50;100.00;100751.27;107197;1290;23086;-79
2024/01/13 01:47:02;;;;;;;21.30;16.70;;;;;;;0.66;100.00;100746.63;107643;1290;548557;-76
2024/01/13 01:50:40;;;;;;;;;;;;;;;;;;;;;
2024/01/13 01:53:55;;;;;;;17.10;14.30;;;;;;;0.57;100.00;100746.55;110569;1261;21959;-76
2024/01/13 01:57:43;;;;;;;16.50;14.80;;;;;;;0.53;100.00;100747.02;109765;1268;21973;-76
2024/01/13 02:01:31;;;;;;;16.20;13.80;;;;;;;0.44;100.00;100742.14;105036;1275;5427890;-77
2024/01/13 02:05:44;;;;;;;17.80;14.20;;;;;;;0.41;100.00;100740.23;108550;1276;21996;-78
2024/01/13 02:09:01;;;;;;;18.90;15.30;;;;;;;0.42;100.00;100734.94;108362;1285;22015;-77
2024/01/13 02:12:26;;;;;;;19.70;15.70;;;;;;;0.44;100.00;100733.59;108297;1279;22216;-76
2024/01/13 02:15:40;;;;;;;23.70;16.30;;;;;;;0.45;100.00;100739.25;108309;1285;22002;-78
2024/01/13 02:19:00;;;;;;;22.20;18.20;;;;;;;0.48;100.00;100739.77;107779;1290;23730;-78
2024/01/13 02:22:18;;;;;;;23.20;17.70;;;;;;;0.51;100.00;100729.36;108203;1284;22213;-77
2024/01/13 02:29:20;;;;;;;20.70;17.70;;;;;;;0.51;100.00;100716.70;108176;1288;22046;-77
2024/01/13 02:32:40;;;;;;;18.70;16.70;;;;;;;0.51;100.00;100707.27;108540;1278;23656;-78
2024/01/13 02:35:59;;;;;;;18.40;16.00;;;;;;;0.53;100.00;100705.40;108939;1276;22061;-77
2024/01/13 02:44:10;;;;;;;20.10;16.10;;;;;;;0.51;100.00;100696.83;108720;1280;21999;-77
2024/01/13 02:47:41;;;;;;;21.30;17.20;;;;;;;0.51;100.00;100703.34;108082;1288;22622;-77
2024/01/13 02:50:24;;;;;;;16.70;14.90;;;;;;;0.53;100.00;100698.55;108052;1288;23063;-78
2024/01/13 02:53:08;;;;;;;20.40;15.90;;;;;;;0.56;100.00;100697.90;108111;1288;23721;-77
2024/01/13 02:56:32;;;;;;;20.40;16.40;;;;;;;0.56;100.00;100695.33;108189;1285;23052;-76
2024/01/13 03:00:14;;;;;;;;;;;;;;;;;;;;;
2024/01/13 03:03:48;;;;;;;20.00;16.30;;;;;;;0.48;100.00;100696.11;108479;1284;21999;-78
2024/01/13 03:14:36;;;;;;;;;;;;;;;;;;;;;
2024/01/13 03:17:47;;;;;;;23.30;17.90;;;;;;;0.46;100.00;100692.85;108375;1284;22202;-78
2024/01/13 03:21:02;;;;;;;23.60;18.10;;;;;;;0.47;100.00;100680.34;108212;1284;21998;-77
2024/01/13 03:24:02;;;;;;;20.90;18.60;;;;;;;0.49;100.00;100682.77;108700;1275;23764;-77
2024/01/13 03:27:38;;;;;;;25.00;19.00;;;;;;;0.49;100.00;100686.54;108792;1275;23651;-78
2024/01/13 03:34:37;;;;;;;24.90;19.80;;;;;;;0.46;100.00;100681.04;109051;1273;21994;-76
2024/01/13 03:38:17;;;;;;;24.30;17.00;;;;;;;0.47;100.00;100674.70;108870;1278;21987;-77
2024/01/13 03:42:30;;;;;;;;;;;;;;;;;;;;;
2024/01/13 03:46:18;;;;;;;27.00;18.50;;;;;;;0.51;100.00;100661.03;108665;1278;22021;-76
2024/01/13 03:50:15;;;;;;;25.80;18.20;;;;;;;0.52;100.00;100655.23;109157;1274;22026;-76
2024/01/13 03:58:28;;;;;;;;;;;;;;;;;;;;;
2024/01/13 04:01:23;;;;;;;23.10;18.10;;;;;;;0.64;100.00;100649.15;108144;1275;23126;-77
2024/01/13 04:07:36;;;;;;;;;;;;;;;;;;;;;
2024/01/13 04:11:28;;;;;;;;;;;;;;;;;;;;;
2024/01/13 04:15:53;;;;;;;;;;;;;;;;;;;;;
2024/01/13 04:24:11;;;;;;;;;;;;;;;;;;;;;
2024/01/13 04:28:29;;;;;;;;;;;;;;;;;;;;;
2024/01/13 04:32:36;;;;;;;29.00;22.00;;;;;;;0.65;100.00;100649.85;106896;1303;23766;-77
2024/01/13 04:56:05;;;;;;;;;;;;;;;;;;;;;
2024/01/13 05:00:04;;;;;;;28.50;22.70;;;;;;;1.23;100.00;100633.23;108583;1282;22180;-78
2024/01/13 05:04:39;;;;;;;30.50;23.50;;;;;;;1.34;100.00;100612.71;107371;1296;549605;-76
2024/01/13 05:09:02;;;;;;;;;;;;;;;;;;;;;
2024/01/13 05:13:13;;;;;;;26.80;20.20;;;;;;;0.95;100.00;100593.66;107918;1293;22002;-78
2024/01/13 05:17:49;;;;;;;;;;;;;;;;;;;;;
2024/01/13 05:21:13;;;;;;;28.70;19.80;;;;;;;0.88;100.00;100589.52;107593;1296;22020;-77
2024/01/13 05:24:21;;;;;;;24.30;20.10;;;;;;;0.86;100.00;100585.56;107383;1296;22078;-79
2024/01/13 05:44:23;;;;;;;;;;;;;;;;;;;;;
2024/01/13 06:04:47;;;;;;;;;;;;;;;;;;;;;
2024/01/13 06:14:25;;;;;;;;;;;;;;;;;;;;;
2024/01/13 06:27:21;;;;;;;24.20;17.90;;;;;;;1.15;100.00;100579.04;108129;1288;22545;-77
2024/01/13 06:48:45;;;;;;;24.30;19.90;;;;;;;2.19;100.00;100565.85;110913;1256;23736;-79
2024/01/13 06:56:36;;;;;;;25.00;20.30;;;;;;;1.57;100.00;100572.83;110020;1267;23200;-78
2024/01/13 06:59:57;;;;;;;24.30;19.40;;;;;;;1.42;100.00;100576.05;109667;1270;21979;-79
2024/01/13 07:03:54;;;;;;;;;;;;;;;;;;;;;
2024/01/13 07:11:36;;;;;;;35.10;25.40;;;;;;;1.13;100.00;100567.88;108561;1279;24544;-78
2024/01/13 07:29:04;;;;;;;30.10;22.30;;;;;;;0.99;100.00;100549.80;110371;1265;558195;-77
2024/01/13 07:32:09;;;;;;;33.70;21.80;;;;;;;0.92;100.00;100542.93;107379;1244;5565583;-76
2024/01/13 07:40:12;;;;;;;28.80;21.90;;;;;;;0.97;100.00;100546.72;111546;1251;22451;-79
2024/01/13 07:43:37;;;;;;;28.60;22.40;;;;;;;1.02;100.00;100539.20;112029;1246;21950;-77
2024/01/13 07:47:22;;;;;;;26.20;20.40;;;;;;;1.05;100.00;100535.63;112027;1246;21969;-76
2024/01/13 07:50:49;;;;;;;29.00;22.20;;;;;;;1.07;100.00;100534.59;111934;1246;22006;-79
2024/01/13 07:53:44;;;;;;;23.90;20.80;;;;;;;1.11;100.00;100538.04;111285;1252;23778;-77
2024/01/13 07:57:02;;;;;;;28.40;19.70;;;;;;;1.13;100.00;100538.73;110727;1258;22734;-78
2024/01/13 08:00:26;;;;;;;23.50;18.50;;;;;;;1.15;100.00;100531.89;110711;1258;21970;-77
2024/01/13 08:04:29;;;;;;;;;;;;;;;;;;;;;
2024/01/13 08:07:50;;;;;;;25.80;19.10;;;;;;;1.12;100.00;100514.05;110511;1262;23738;-78
2024/01/13 08:11:17;;;;;;;23.50;17.80;;;;;;;1.16;100.00;100514.23;110248;1254;21988;-77
2024/01/13 08:15:08;;;;;;;26.00;23.00;;;;;;;1.19;100.00;100517.50;111672;1249;23036;-78
2024/01/13 08:18:26;;;;;;;20.40;18.30;;;;;;;1.22;100.00;100509.95;110920;1254;22227;-78
2024/01/13 08:21:58;;;;;;;;;;;;;;;;;;;;;
2024/01/13 08:25:42;;;;;;;23.30;19.40;;;;;;;1.29;100.00;100509.81;110677;1258;22683;-77
2024/01/13 08:28:48;;;;;;;24.90;21.10;;;;;;;1.32;100.00;100500.21;110231;1262;23109;-81
2024/01/13 08:31:53;;;;;;;23.40;17.50;;;;;;;1.36;100.00;100494.22;110395;1262;22597;-77
2024/01/13 08:35:02;;;;;;;22.50;20.00;;;;;;;1.38;100.00;100490.11;110420;1262;22036;-77
2024/01/13 08:38:13;;;;;;;;;;;;;;;;;;;;;
2024/01/13 08:45:23;;;;;;;23.10;19.70;;;;;;;1.38;100.00;100482.05;110810;1258;21984;-78
2024/01/13 08:48:35;;;;;;;22.70;18.90;;;;;;;1.43;100.00;100482.06;111187;1253;24385;-80
2024/01/13 08:51:49;;;;;;;27.60;21.50;;;;;;;1.48;100.00;100484.14;111204;1254;21922;-79
2024/01/13 08:54:53;;;;;;;26.20;23.50;;;;;;;1.49;100.00;100479.34;111435;1242;22852;-79
2024/01/13 08:58:10;;;;;;;31.10;27.00;;;;;;;1.51;100.00;100472.12;111753;1243;23840;-79
2024/01/13 09:01:57;;;;;;;28.40;25.30;;;;;;;1.53;100.00;100464.59;111877;1246;22476;-79
2024/01/13 09:04:39;;;;;;;28.80;25.60;;;;;;;1.54;100.00;100467.84;110930;1257;23282;-80
2024/01/13 09:10:57;;;;;;;22.60;19.60;;;;;;;1.60;100.00;100472.31;109677;1270;21982;-78
2024/01/13 09:13:49;;;;;;;;;;;;;;;;;;;;;
2024/01/13 09:17:10;;;;;;;28.50;21.80;;;;;;;1.63;100.00;100462.19;109513;1266;22435;-76
2024/01/13 09:21:12;;;;;;;34.20;24.40;;;;;;;1.67;100.00;100467.85;110097;1263;23846;-78
2024/01/13 09:24:30;;;;;;;31.80;24.30;;;;;;;1.67;100.00;100467.51;110685;1259;22008;-77
2024/01/13 09:27:41;;;;;;;25.70;20.40;;;;;;;1.71;100.00;100461.34;110763;1258;22116;-77
2024/01/13 09:30:45;;;;;;;41.00;32.80;;;;;;;1.74;100.00;100450.52;111298;1252;22967;-78
2024/01/13 09:34:29;;;;;;;;;;;;;;;;;;;;;
2024/01/13 09:37:20;;;;;;;31.40;25.70;;;;;;;1.78;100.00;100436.46;111212;1251;21944;-77
2024/01/13 09:40:45;;;;;;;26.20;21.20;;;;;;;1.84;100.00;100435.59;111517;1251;22716;-78
2024/01/13 09:44:01;;;;;;;25.40;20.10;;;;;;;1.83;100.00;100429.07;112192;1244;23685;-77
2024/01/13 09:47:00;;;;;;;22.90;20.20;;;;;;;1.82;100.00;100425.65;111346;1248;22694;-77
2024/01/13 09:50:36;;;;;;;22.20;20.00;;;;;;;1.82;100.00;100412.61;111645;1249;21968;-77
2024/01/13 09:53:35;;;;;;;37.00;33.20;;;;;;;1.86;100.00;100410.36;111203;1254;21963;-78
2024/01/13 09:56:52;;;;;;;31.80;28.40;;;;;;;1.89;100.00;100404.88;110858;1258;21966;-77
2024/01/13 10:00:08;;;;;;;30.90;25.70;;;;;;;1.74;100.00;100377.44;110159;1264;23128;-78
2024/01/13 10:03:27;;;;;;;29.70;26.50;;;;;;;1.90;100.00;100395.25;110204;1264;22768;-77
2024/01/13 10:06:32;;;;;;;32.70;26.70;;;;;;;1.95;100.00;100389.58;110130;1264;23028;-78
2024/01/13 10:10:25;;;;;;;;;;;;;;;;;;;;;
2024/01/13 10:14:08;;;;;;;30.80;25.00;;;;;;;2.02;100.00;100372.58;111462;1245;21932;-79
2024/01/13 10:17:48;;;;;;;32.80;28.40;;;;;;;2.03;100.00;100365.54;111945;1245;24555;-79
2024/01/13 10:20:35;;;;;;;27.60;23.50;;;;;;;2.05;100.00;100356.26;112027;1245;23011;-76
2024/01/13 10:23:30;;;;;;;27.80;24.90;;;;;;;2.09;100.00;100348.18;111855;1237;21954;-77
2024/01/13 10:26:45;;;;;;;;;;;;;;;;;;;;;
2024/01/13 10:29:59;;;;;;;35.70;30.60;;;;;;;2.07;100.00;100327.41;113059;1237;22962;-79
2024/01/13 10:32:53;;;;;;;38.90;34.70;;;;;;;2.06;100.00;100320.02;113365;1236;22711;-77
2024/01/13 10:36:05;;;;;;;;;;;;;;;;;;;;;
2024/01/13 10:39:14;;;;;;;34.30;27.40;;;;;;;2.20;100.00;100310.36;112342;1242;21951;-78
2024/01/13 10:42:59;;;;;;;;;;;;;;;;;;;;;
2024/01/13 10:46:42;;;;;;;;;;;;;;;;;;;;;
2024/01/13 10:50:07;;;;;;;;;;;;;;;;;;;;;
2024/01/13 10:53:42;;;;;;;39.70;33.10;;;;;;;2.14;100.00;100277.08;113105;1231;21932;-77
2024/01/13 10:57:06;;;;;;;;;;;;;;;;;;;;;
2024/01/13 11:00:28;;;;;;;40.10;31.50;;;;;;;2.20;100.00;100290.30;112905;1237;23007;-78
2024/01/13 11:03:23;;;;;;;28.50;24.90;;;;;;;2.18;100.00;100281.70;112782;1237;22196;-77
2024/01/13 11:06:37;;;;;;;;;;;;;;;;;;;;;
2024/01/13 11:10:34;;;;;;;26.80;22.70;;;;;;;2.18;100.00;100262.83;112412;1242;23710;-79
2024/01/13 11:14:33;;;;;;;22.90;19.80;;;;;;;2.20;100.00;100252.68;111413;1252;22866;-79
2024/01/13 11:18:07;;;;;;;21.30;19.20;;;;;;;2.23;100.00;100246.13;111773;1247;22169;-79
2024/01/13 11:21:41;;;;;;;21.50;16.60;;;;;;;2.25;100.00;100250.07;111705;1247;21972;-81
2024/01/13 11:25:04;;;;;;;19.10;15.60;;;;;;;2.25;100.00;100251.27;110749;1260;22008;-78
2024/01/13 11:28:13;;;;;;;22.60;19.40;;;;;;;2.23;100.00;100245.11;110987;1257;22983;-79
2024/01/13 11:30:46;;;;;;;21.90;19.10;;;;;;;2.25;100.00;100242.17;110854;1254;22977;-77
2024/01/13 11:33:43;;;;;;;18.40;16.40;;;;;;;2.23;100.00;100230.52;111365;1251;23643;-83
2024/01/13 11:37:54;;;;;;;19.90;17.70;;;;;;;2.10;100.00;100212.90;110795;1260;24412;-80
2024/01/13 11:41:14;;;;;;;18.30;16.20;;;;;;;2.14;100.00;100222.48;110987;1258;21969;-79
2024/01/13 11:44:50;;;;;;;19.60;17.50;;;;;;;2.16;100.00;100215.79;111588;1250;21968;-78
2024/01/13 11:48:48;;;;;;;21.60;18.80;;;;;;;2.15;100.00;100197.42;111564;1244;21986;-79
2024/01/13 11:56:02;;;;;;;;;;;;;;;;;;;;;
2024/01/13 11:59:58;;;;;;;21.00;18.70;;;;;;;2.30;100.00;100168.31;110798;1260;21978;-81
2024/01/13 12:03:47;;;;;;;17.20;15.40;;;;;;;2.32;100.00;100166.23;110387;1262;22051;-78
2024/01/13 12:06:51;;;;;;;19.40;17.30;;;;;;;2.34;100.00;100163.29;110076;1267;21996;-78
2024/01/13 12:09:37;;;;;;;20.20;16.90;;;;;;;2.38;100.00;100155.04;109717;1266;22197;-79
2024/01/13 12:12:55;;;;;;;;;;;;;;;;;;;;;
2024/01/13 12:19:32;;;;;;;;;;;;;;;;;;;;;
2024/01/13 12:26:22;;;;;;;28.40;23.40;;;;;;;2.29;100.00;100132.27;110913;1258;23620;-77
2024/01/13 12:29:53;;;;;;;;;;;;;;;;;;;;;
2024/01/13 12:34:38;;;;;;;;;;;;;;;;;;;;;
2024/01/13 12:39:50;;;;;;;22.20;18.00;;;;;;;2.17;100.00;100111.23;109657;1270;22038;-78
2024/01/13 12:57:01;;;;;;;22.20;19.80;;;;;;;3.71;100.00;100097.14;108293;1284;548346;-79
2024/01/13 13:00:43;;;;;;;22.40;18.50;;;;;;;3.91;100.00;100079.04;109304;1274;174721;-77
2024/01/13 13:03:20;;;;;;;22.60;19.00;;;;;;;3.40;100.00;100083.02;110530;1266;22964;-80
2024/01/13 13:06:06;;;;;;;25.70;20.90;;;;;;;3.15;100.00;100081.44;109807;1271;22082;-80
2024/01/13 13:08:41;;;;;;;27.80;23.20;;;;;;;2.98;100.00;100077.67;109469;1270;21980;-79
2024/01/13 13:11:30;;;;;;;21.50;18.00;;;;;;;2.85;100.00;100068.70;109045;1275;23051;-78
2024/01/13 13:14:10;;;;;;;44.40;34.80;;;;;;;2.73;100.00;100059.38;109206;1275;22005;-78
2024/01/13 13:16:43;;;;;;;35.70;28.70;;;;;;;2.63;100.00;100053.13;109114;1280;22004;-78
2024/01/13 13:20:00;;;;;;;29.60;22.70;;;;;;;2.51;100.00;100042.59;108689;1284;23497;-79
2024/01/13 13:22:41;;;;;;;42.40;33.30;;;;;;;2.43;100.00;100037.02;108495;1283;22957;-80
2024/01/13 13:25:21;;;;;;;32.90;24.70;;;;;;;2.34;100.00;100030.21;108356;1287;23129;-80
2024/01/13 13:28:13;;;;;;;31.10;22.40;;;;;;;2.33;100.00;100027.48;108187;1292;22144;-80
2024/01/13 13:31:08;;;;;;;38.40;26.90;;;;;;;2.30;100.00;100024.75;108611;1285;22015;-78
2024/01/13 13:34:04;;;;;;;36.70;24.70;;;;;;;2.28;100.00;100023.23;108778;1280;22760;-79
2024/01/13 13:36:58;;;;;;;25.30;20.00;;;;;;;2.25;100.00;100021.54;109334;1270;21963;-79
2024/01/13 13:39:53;;;;;;;37.60;26.30;;;;;;;2.23;100.00;100013.65;109650;1270;21998;-79
2024/01/13 13:42:31;;;;;;;28.40;21.80;;;;;;;2.21;100.00;100014.20;110003;1254;22012;-79
2024/01/13 13:45:05;;;;;;;28.00;20.50;;;;;;;2.20;100.00;100013.52;110758;1262;21977;-78
2024/01/13 13:48:33;;;;;;;;;;;;;;;;;;;;;
2024/01/13 13:51:13;;;;;;;26.20;20.50;;;;;;;2.14;100.00;100008.92;110307;1265;21970;-79
2024/01/13 13:54:41;;;;;;;;;;;;;;;;;;;;;
2024/01/13 13:58:16;;;;;;;24.50;18.20;;;;;;;2.08;100.00;100010.36;110871;1259;23601;-79
2024/01/13 14:01:07;;;;;;;21.00;16.20;;;;;;;2.07;100.00;100013.11;111040;1259;21973;-81
2024/01/13 14:04:09;;;;;;;15.60;13.50;;;;;;;2.06;100.00;100014.33;110976;1259;22984;-79
2024/01/13 14:07:27;;;;;;;18.80;13.80;;;;;;;2.04;100.00;100015.55;110744;1254;22039;-78
2024/01/13 14:13:25;;;;;;;;;;;;;;;;;;;;;
2024/01/13 14:16:34;;;;;;;23.10;20.30;;;;;;;1.99;100.00;99994.30;111331;1255;23612;-79
2024/01/13 14:19:25;;;;;;;23.70;18.60;;;;;;;1.96;100.00;99980.94;111623;1255;21965;-80
2024/01/13 14:22:09;;;;;;;21.30;17.50;;;;;;;1.94;100.00;99977.52;110606;1249;21969;-79
2024/01/13 14:24:58;;;;;;;20.90;17.50;;;;;;;1.97;100.00;99968.91;110162;1268;22067;-82
2024/01/13 14:28:57;;;;;;;21.60;16.30;;;;;;;1.95;100.00;99964.13;110229;1268;22023;-80
2024/01/13 14:31:55;;;;;;;22.30;18.40;;;;;;;1.83;100.00;99942.10;110136;1268;21989;-78
2024/01/13 14:34:50;;;;;;;20.20;18.00;;;;;;;1.94;100.00;99950.92;109839;1268;23646;-80
2024/01/13 14:38:34;;;;;;;24.10;19.90;;;;;;;1.93;100.00;99942.52;110125;1268;21990;-78
2024/01/13 14:41:34;;;;;;;20.90;16.50;;;;;;;1.88;100.00;99937.40;110942;1262;22012;-78
2024/01/13 14:44:39;;;;;;;29.20;20.30;;;;;;;1.89;100.00;99933.63;110879;1255;21968;-79
2024/01/13 14:48:14;;;;;;;25.10;18.80;;;;;;;1.84;100.00;99927.51;111090;1255;23058;-81
2024/01/13 14:51:10;;;;;;;22.30;16.40;;;;;;;1.84;100.00;99928.70;111300;1255;21973;-79
2024/01/13 14:53:53;;;;;;;22.10;17.00;;;;;;;1.84;100.00;99925.96;111218;1255;21995;-82
2024/01/13 14:56:31;;;;;;;43.70;32.70;;;;;;;1.86;100.00;99924.73;110843;1254;23095;-81
2024/01/13 14:59:31;;;;;;;35.50;28.50;;;;;;;1.86;100.00;99924.05;110782;1257;23689;-81
2024/01/13 15:02:57;;;;;;;25.00;18.70;;;;;;;1.86;100.00;99913.23;110574;1265;21982;-80
2024/01/13 15:06:06;;;;;;;22.90;18.80;;;;;;;1.83;100.00;99898.35;109724;1272;22309;-80
2024/01/13 15:10:10;;;;;;;25.00;19.30;;;;;;;1.79;100.00;99894.95;109451;1272;22011;-81
2024/01/13 15:13:17;;;;;;;22.50;18.00;;;;;;;1.76;100.00;99893.08;109186;1276;21997;-80
2024/01/13 15:16:35;;;;;;;28.70;22.40;;;;;;;1.75;100.00;99894.12;109130;1278;23644;-83
2024/01/13 15:19:57;;;;;;;29.10;23.60;;;;;;;1.75;100.00;99898.06;109155;1275;24442;-81
2024/01/13 15:23:05;;;;;;;25.70;22.10;;;;;;;1.74;100.00;99895.85;109601;1272;21995;-80
2024/01/13 15:26:07;;;;;;;23.10;18.30;;;;;;;1.77;100.00;99897.70;109506;1271;22003;-79
2024/01/13 15:29:29;;;;;;;;;;;;;;;;;;;;;
2024/01/13 15:32:18;;;;;;;;;;;;;;;;;;;;;
2024/01/13 15:35:59;;;;;;;20.10;14.60;;;;;;;1.79;100.00;99878.98;109234;1272;22074;-82
2024/01/13 15:39:00;;;;;;;19.50;15.00;;;;;;;1.86;100.00;99879.10;109369;1272;21999;-81
2024/01/13 15:41:56;;;;;;;21.80;16.80;;;;;;;1.89;100.00;99878.90;109010;1277;22019;-82
2024/01/13 15:45:00;;;;;;;21.10;15.20;;;;;;;1.94;100.00;99870.44;109078;1277;21996;-79
2024/01/13 15:48:58;;;;;;;14.20;11.40;;;;;;;1.93;100.00;99870.10;108736;1282;22012;-82
2024/01/13 15:52:11;;;;;;;18.00;15.20;;;;;;;1.91;100.00;99872.87;108356;1288;22019;-82
2024/01/13 15:55:23;;;;;;;25.90;22.90;;;;;;;1.91;100.00;99864.45;108646;1282;22925;-81
2024/01/13 15:58:04;;;;;;;31.80;26.20;;;;;;;1.91;100.00;99863.61;108639;1283;23575;-82
2024/01/13 16:01:11;;;;;;;20.10;17.40;;;;;;;1.92;100.00;99859.48;108857;1279;22009;-80
2024/01/13 16:04:34;;;;;;;23.70;15.60;;;;;;;1.93;100.00;99858.27;108553;1283;23116;-79
2024/01/13 16:07:24;;;;;;;16.70;12.10;;;;;;;1.93;100.00;99856.02;108709;1284;21776;-79
2024/01/13 16:10:29;;;;;;;19.40;12.70;;;;;;;1.92;100.00;99853.80;108485;1284;23754;-79
2024/01/13 16:12:56;;;;;;;21.70;16.60;;;;;;;1.90;100.00;99845.60;108550;1281;23598;-80
2024/01/13 16:15:44;;;;;;;;;;;;;;;;;;;;;
2024/01/13 16:18:34;;;;;;;27.90;18.80;;;;;;;1.95;100.00;99832.31;108584;1276;22267;-78
2024/01/13 16:21:42;;;;;;;22.00;16.50;;;;;;;1.96;100.00;99829.23;109028;1273;22095;-79
2024/01/13 16:25:29;;;;;;;17.50;12.40;;;;;;;1.96;100.00;99822.36;109913;1268;22011;-80
2024/01/13 16:28:50;;;;;;;28.00;22.00;;;;;;;1.95;100.00;99816.20;109796;1268;23033;-78
2024/01/13 16:31:27;;;;;;;37.20;30.60;;;;;;;1.95;100.00;99806.42;109451;1270;22099;-78
2024/01/13 16:34:18;;;;;;;50.60;40.30;;;;;;;1.95;100.00;99803.67;109525;1269;21982;-78
2024/01/13 16:37:09;;;;;;;27.30;23.20;;;;;;;1.97;100.00;99798.84;109544;1257;22044;-78
2024/01/13 16:40:26;;;;;;;25.10;20.10;;;;;;;1.99;100.00;99791.77;109360;1274;21992;-80
2024/01/13 16:43:54;;;;;;;33.80;26.00;;;;;;;1.96;100.00;99787.19;109293;1274;21985;-81
2024/01/13 16:46:54;;;;;;;26.30;19.70;;;;;;;1.89;100.00;99786.23;109086;1276;21988;-82
2024/01/13 16:49:49;;;;;;;24.40;18.60;;;;;;;1.86;100.00;99790.03;108750;1280;21993;-79
2024/01/13 16:53:24;;;;;;;21.10;16.50;;;;;;;1.83;100.00;99779.27;108705;1277;24116;-79
2024/01/13 16:56:12;;;;;;;22.00;18.10;;;;;;;1.85;100.00;99775.81;108961;1269;22096;-79
2024/01/13 16:58:58;;;;;;;26.00;20.80;;;;;;;1.86;100.00;99769.46;108479;1284;23682;-77
2024/01/13 17:01:53;;;;;;;13.80;12.40;;;;;;;1.85;100.00;99760.89;108519;1274;22056;-77
2024/01/13 17:05:13;;;;;;;19.40;16.70;;;;;;;1.80;100.00;99751.68;108378;1284;22150;-78
2024/01/13 17:08:07;;;;;;;18.90;15.20;;;;;;;1.75;100.00;99746.24;108602;1280;21992;-78
2024/01/13 17:10:37;;;;;;;22.80;18.10;;;;;;;1.74;100.00;99744.72;108802;1280;22024;-79
2024/01/13 17:13:17;;;;;;;18.20;15.70;;;;;;;1.74;100.00;99742.83;108632;1280;22772;-78
2024/01/13 17:16:04;;;;;;;16.60;13.60;;;;;;;1.70;100.00;99734.13;108522;1280;22043;-79
2024/01/13 17:18:36;;;;;;;13.80;11.50;;;;;;;1.68;100.00;99727.45;108633;1280;23012;-79
2024/01/13 17:21:10;;;;;;;17.90;14.10;;;;;;;1.65;100.00;99723.20;108749;1280;22001;-80
2024/01/13 17:23:43;;;;;;;14.40;12.90;;;;;;;1.63;100.00;99719.96;109248;1256;22012;-78
2024/01/13 17:26:14;;;;;;;14.80;12.20;;;;;;;1.61;100.00;99717.92;109787;1268;21986;-79
2024/01/13 17:28:52;;;;;;;17.00;14.70;;;;;;;1.56;100.00;99708.38;110072;1268;21993;-80
2024/01/13 17:31:22;;;;;;;23.40;17.60;;;;;;;1.52;100.00;99702.42;109644;1274;21990;-79
2024/01/13 17:34:00;;;;;;;23.30;18.70;;;;;;;1.53;100.00;99701.20;109460;1271;22011;-82
2024/01/13 17:36:33;;;;;;;15.60;14.00;;;;;;;1.53;100.00;99699.16;109404;1273;21989;-83
2024/01/13 17:39:13;;;;;;;22.90;18.30;;;;;;;1.52;100.00;99694.35;109535;1273;21852;-79
2024/01/13 17:41:43;;;;;;;21.20;16.60;;;;;;;1.51;100.00;99692.48;109727;1271;21983;-79
2024/01/13 17:44:16;;;;;;;20.60;16.00;;;;;;;1.49;100.00;99691.13;109284;1275;21985;-80
2024/01/13 17:46:46;;;;;;;17.90;15.30;;;;;;;1.51;100.00;99686.31;109206;1274;22913;-80
2024/01/13 17:49:19;;;;;;;17.50;15.00;;;;;;;1.54;100.00;99686.27;109396;1272;22145;-81
2024/01/13 17:51:56;;;;;;;20.60;18.10;;;;;;;1.56;100.00;99679.59;109534;1272;24030;-80
2024/01/13 17:57:57;;;;;;;20.70;17.60;;;;;;;1.58;100.00;99674.91;109011;1275;23036;-78
2024/01/13 18:01:09;;;;;;;26.40;18.50;;;;;;;1.57;100.00;99671.33;109151;1272;21980;-78
2024/01/13 18:04:04;;;;;;;;;;;;;;;;;;;;;
2024/01/13 18:07:02;;;;;;;22.50;19.10;;;;;;;1.47;100.00;99669.38;109655;1268;22010;-79
2024/01/13 18:09:46;;;;;;;29.00;21.90;;;;;;;1.47;100.00;99666.13;109283;1272;22055;-81
2024/01/13 18:12:31;;;;;;;16.90;15.20;;;;;;;1.49;100.00;99668.34;109654;1270;23789;-79
2024/01/13 18:15:38;;;;;;;17.50;15.80;;;;;;;1.51;100.00;99664.36;109796;1270;23676;-78
2024/01/13 18:18:54;;;;;;;17.40;14.00;;;;;;;1.47;100.00;99659.10;109787;1270;21991;-78
2024/01/13 18:21:59;;;;;;;14.90;13.20;;;;;;;1.44;100.00;99657.77;109487;1273;21988;-81
2024/01/13 18:24:52;;;;;;;17.00;15.30;;;;;;;1.40;100.00;99655.91;109099;1273;21982;-79
2024/01/13 18:27:39;;;;;;;;;;;;;;;;;;;;;
2024/01/13 18:30:48;;;;;;;19.20;14.50;;;;;;;1.36;100.00;99651.69;108978;1277;23634;-79
2024/01/13 18:33:35;;;;;;;18.80;15.30;;;;;;;1.32;100.00;99646.40;109112;1275;22776;-79
2024/01/13 18:36:49;;;;;;;20.40;15.80;;;;;;;1.26;100.00;99644.07;109043;1277;23631;-79
2024/01/13 18:39:38;;;;;;;18.90;14.40;;;;;;;1.23;100.00;99639.99;108397;1284;23670;-78
2024/01/13 18:42:17;;;;;;;15.20;13.00;;;;;;;1.21;100.00;99640.35;108756;1279;21996;-78
2024/01/13 18:48:17;;;;;;;17.30;15.50;;;;;;;1.16;100.00;99635.29;108869;1276;23091;-78
2024/01/13 18:50:56;;;;;;;26.30;22.40;;;;;;;1.13;100.00;99631.20;109241;1276;22263;-79
2024/01/13 18:53:47;;;;;;;32.50;25.90;;;;;;;1.12;100.00;99629.49;108559;1280;22002;-78
2024/01/13 18:56:51;;;;;;;20.00;17.10;;;;;;;1.10;100.00;99627.80;108389;1281;21994;-78
2024/01/13 18:59:41;;;;;;;18.80;16.80;;;;;;;1.10;100.00;99627.11;108439;1284;22006;-78
2024/01/13 19:02:32;;;;;;;20.50;16.70;;;;;;;1.10;100.00;99624.71;108096;1289;22077;-78
2024/01/13 19:05:41;;;;;;;20.60;16.60;;;;;;;1.13;100.00;99621.59;108221;1289;22021;-79
2024/01/13 19:08:56;;;;;;;19.90;17.10;;;;;;;1.14;100.00;99619.70;108245;1288;23631;-78
2024/01/13 19:11:48;;;;;;;18.10;16.00;;;;;;;1.13;100.00;99616.45;108724;1279;23635;-80
2024/01/13 19:14:47;;;;;;;21.50;17.30;;;;;;;1.14;100.00;99608.56;108982;1274;22859;-79
2024/01/13 19:17:48;;;;;;;23.70;18.20;;;;;;;1.11;100.00;99599.17;109124;1274;24149;-79
2024/01/13 19:20:59;;;;;;;22.80;19.00;;;;;;;1.09;100.00;99590.80;109335;1269;22089;-79
2024/01/13 19:23:50;;;;;;;22.30;19.70;;;;;;;1.09;100.00;99584.96;109762;1269;23603;-79
2024/01/13 19:26:41;;;;;;;34.90;25.90;;;;;;;1.11;100.00;99587.69;109346;1273;22198;-80
2024/01/13 19:29:22;;;;;;;24.30;20.50;;;;;;;1.15;100.00;99577.18;109314;1273;22470;-80
2024/01/13 19:32:32;;;;;;;25.20;20.00;;;;;;;1.19;100.00;99577.82;109255;1273;21988;-80
2024/01/13 19:35:31;;;;;;;21.30;18.60;;;;;;;1.15;100.00;99569.48;109182;1273;21989;-81